createdAt,value
2023-01-27T00:04:09.541Z,-1.2
2023-01-27T00:09:01.569Z,-1.2
2023-01-27T00:13:52.975Z,-1.2
2023-01-27T00:18:44.741Z,-1.1
2023-01-27T00:23:36.139Z,-1.2
2023-01-27T00:28:28.396Z,-1.1
2023-01-27T00:33:35.857Z,-1.1
2023-01-27T00:38:43.187Z,-1.1
2023-01-27T00:43:34.853Z,-1.1
2023-01-27T00:48:25.741Z,-1.1
2023-01-27T00:53:31.626Z,-1.1
2023-01-27T00:58:38.095Z,-1.1
2023-01-27T01:03:29.558Z,-1.1
2023-01-27T01:08:52.205Z,-1.1
2023-01-27T01:13:59.404Z,-1.1
2023-01-27T01:18:51.070Z,-1.1
2023-01-27T01:23:58.111Z,-1.1
2023-01-27T01:29:20.355Z,-1.1
2023-01-27T01:34:43.737Z,-1.1
2023-01-27T01:40:05.518Z,-1.1
2023-01-27T01:45:31.424Z,-1.1
2023-01-27T01:50:54.043Z,-1.1
2023-01-27T01:56:15.603Z,-1.1
2023-01-27T02:01:40.759Z,-1.1
2023-01-27T02:07:03.276Z,-1.1
2023-01-27T02:12:24.900Z,-1
2023-01-27T02:17:48.646Z,-1
2023-01-27T02:22:55.297Z,-1
2023-01-27T02:28:18.414Z,-1
2023-01-27T02:33:14.032Z,-1
2023-01-27T02:38:21.948Z,-1
2023-01-27T02:43:44.373Z,-1
2023-01-27T02:49:07.699Z,-1
2023-01-27T02:54:29.753Z,-1
2023-01-27T02:59:51.534Z,-1
2023-01-27T03:05:14.590Z,-1
2023-01-27T03:10:37.248Z,-1
2023-01-27T03:16:00.056Z,-1.1
2023-01-27T03:21:07.512Z,-1
2023-01-27T03:26:30.248Z,-1
2023-01-27T03:31:37.819Z,-1
2023-01-27T03:37:00.960Z,-1
2023-01-27T03:42:23.439Z,-1
2023-01-27T03:47:46.179Z,-1
2023-01-27T03:53:09.072Z,-1
2023-01-27T03:58:31.456Z,-1
2023-01-27T04:03:54.062Z,-1
2023-01-27T04:09:16.642Z,-1
2023-01-27T04:14:40.003Z,-1
2023-01-27T04:20:02.317Z,-1
2023-01-27T04:25:11.070Z,-1
2023-01-27T04:30:45.894Z,-1
2023-01-27T04:41:21.599Z,-1
2023-01-27T05:27:45.413Z,-0.9
2023-01-27T05:33:08.144Z,-0.9
2023-01-27T05:38:30.761Z,-0.9
2023-01-27T05:43:38.273Z,-0.9
2023-01-27T05:49:01.486Z,-0.9
2023-01-27T05:54:25.700Z,-0.9
2023-01-27T05:59:34.346Z,-0.9
2023-01-27T06:04:43.458Z,-0.9
2023-01-27T06:09:50.380Z,-0.9
2023-01-27T06:14:58.109Z,-0.9
2023-01-27T06:25:12.573Z,-0.9
2023-01-27T06:30:48.482Z,-0.9
2023-01-27T06:36:11.938Z,-0.9
2023-01-27T06:41:34.723Z,-0.9
2023-01-27T06:46:58.068Z,-0.8
2023-01-27T06:52:20.952Z,-0.8
2023-01-27T06:57:46.013Z,-0.8
2023-01-27T07:03:09.785Z,-0.7
2023-01-27T07:08:34.328Z,-0.6
2023-01-27T07:14:10.426Z,-0.6
2023-01-27T07:19:35.107Z,-0.6
2023-01-27T07:24:42.960Z,-0.5
2023-01-27T07:30:15.833Z,-0.4
2023-01-27T07:35:39.659Z,-0.4
2023-01-27T07:41:05.256Z,-0.3
2023-01-27T07:46:28.916Z,-0.3
2023-01-27T07:51:35.873Z,-0.1
2023-01-27T07:56:43.296Z,-0.1
2023-01-27T08:02:06.188Z,0
2023-01-27T08:07:45.200Z,0
2023-01-27T08:13:11.301Z,0.1
2023-01-27T08:18:33.865Z,0.2
2023-01-27T08:23:57.411Z,0.3
2023-01-27T08:29:20.301Z,0.3
2023-01-27T08:34:43.059Z,0.4
2023-01-27T08:40:08.480Z,0.6
2023-01-27T08:45:31.128Z,1
2023-01-27T08:50:53.825Z,1.4
2023-01-27T08:56:16.716Z,2
2023-01-27T09:01:39.719Z,2.5
2023-01-27T09:07:02.991Z,3.1
2023-01-27T09:12:35.741Z,3.8
2023-01-27T09:17:58.817Z,4.3
2023-01-27T09:23:21.273Z,4.8
2023-01-27T09:28:52.354Z,5.3
2023-01-27T09:34:16.618Z,5.6
2023-01-27T09:39:39.220Z,5.9
2023-01-27T09:45:02.246Z,6.2
2023-01-27T09:50:27.723Z,6.3
2023-01-27T09:55:58.301Z,6.4
2023-01-27T10:01:20.979Z,6.4
2023-01-27T10:06:44.464Z,6.6
2023-01-27T10:12:07.541Z,6.8
2023-01-27T10:17:30.835Z,6.9
2023-01-27T10:22:53.328Z,7.1
2023-01-27T10:28:15.364Z,7.2
2023-01-27T10:33:38.858Z,7.3
2023-01-27T10:39:01.830Z,7.3
2023-01-27T10:44:24.551Z,7.2
2023-01-27T10:49:47.916Z,7.2
2023-01-27T10:55:10.249Z,7.1
2023-01-27T11:01:36.272Z,6.9
2023-01-27T11:06:59.423Z,6.9
2023-01-27T11:12:22.003Z,6.8
2023-01-27T11:17:44.803Z,6.8
2023-01-27T11:23:19.530Z,6.6
2023-01-27T11:28:44.084Z,6.6
2023-01-27T11:34:06.852Z,6.6
2023-01-27T11:39:44.266Z,6.4
2023-01-27T11:45:06.962Z,6.3
2023-01-27T11:50:29.434Z,6.3
2023-01-27T11:55:52.060Z,6.1
2023-01-27T12:01:16.012Z,6
2023-01-27T12:06:39.083Z,5.8
2023-01-27T12:12:05.356Z,5.8
2023-01-27T12:17:28.053Z,5.8
2023-01-27T12:22:35.890Z,5.7
2023-01-27T12:27:58.475Z,5.7
2023-01-27T12:33:22.142Z,5.7
2023-01-27T12:38:45.279Z,5.9
2023-01-27T12:44:08.314Z,6.2
2023-01-27T12:49:32.972Z,6.4
2023-01-27T12:54:55.452Z,6.6
2023-01-27T13:00:20.981Z,6.8
2023-01-27T13:05:44.408Z,6.8
2023-01-27T13:11:07.157Z,7
2023-01-27T13:16:30.275Z,7.1
2023-01-27T13:21:37.518Z,7.4
2023-01-27T13:26:44.880Z,7.8
2023-01-27T13:32:05.002Z,8.1
2023-01-27T13:37:27.315Z,8.4
2023-01-27T13:42:34.970Z,8.5
2023-01-27T13:47:57.681Z,8.5
2023-01-27T13:53:08.201Z,8.3
2023-01-27T13:58:15.677Z,8.1
2023-01-27T14:03:39.162Z,7.8
2023-01-27T14:08:46.898Z,7.5
2023-01-27T14:14:10.925Z,7.1
2023-01-27T14:19:31.687Z,6.8
2023-01-27T14:24:54.926Z,6.5
2023-01-27T14:30:17.698Z,6.1
2023-01-27T14:35:41.011Z,5.8
2023-01-27T14:41:04.257Z,5.4
2023-01-27T14:46:49.311Z,5.1
2023-01-27T14:52:12.152Z,4.7
2023-01-27T14:57:35.612Z,4.4
2023-01-27T15:02:58.305Z,4
2023-01-27T15:08:22.684Z,3.7
2023-01-27T15:13:29.969Z,3.4
2023-01-27T15:18:51.978Z,3.1
2023-01-27T15:24:14.793Z,2.8
2023-01-27T15:29:37.838Z,2.6
2023-01-27T15:35:02.203Z,2.3
2023-01-27T15:40:21.650Z,2.1
2023-01-27T15:45:47.275Z,1.9
2023-01-27T15:51:09.778Z,1.7
2023-01-27T15:56:34.898Z,1.6
2023-01-27T16:02:01.368Z,1.4
2023-01-27T16:07:25.599Z,1.3
2023-01-27T16:12:48.718Z,1.1
2023-01-27T16:17:56.022Z,1
2023-01-27T16:23:18.822Z,0.9
2023-01-27T16:28:42.379Z,0.8
2023-01-27T16:34:05.351Z,0.7
2023-01-27T16:39:28.359Z,0.6
2023-01-27T16:44:50.455Z,0.6
2023-01-27T16:50:26.770Z,0.5
2023-01-27T16:56:03.664Z,0.4
2023-01-27T17:01:39.887Z,0.4
2023-01-27T17:07:13.873Z,0.3
2023-01-27T17:12:53.116Z,0.3
2023-01-27T17:18:35.186Z,0.2
2023-01-27T17:24:03.825Z,0.2
2023-01-27T17:29:28.420Z,0.1
2023-01-27T17:35:01.420Z,0.1
2023-01-27T17:40:33.525Z,0.1
2023-01-27T17:46:00.448Z,0.1
2023-01-27T17:51:29.917Z,0.1
2023-01-27T17:57:01.075Z,0
2023-01-27T18:02:15.783Z,0
2023-01-27T18:07:25.919Z,0
2023-01-27T18:12:53.904Z,0
2023-01-27T18:18:20.946Z,-0.1
2023-01-27T18:23:51.826Z,-0.1
2023-01-27T18:29:22.457Z,-0.1
2023-01-27T18:34:36.294Z,-0.1
2023-01-27T18:39:51.670Z,-0.1
2023-01-27T18:45:30.516Z,-0.1
2023-01-27T18:51:11.212Z,-0.1
2023-01-27T18:56:52.934Z,-0.1
2023-01-27T19:02:31.823Z,-0.1
2023-01-27T19:08:07.128Z,-0.1
2023-01-27T19:13:38.286Z,-0.1
2023-01-27T19:19:04.210Z,-0.1
2023-01-27T19:24:34.420Z,-0.2
2023-01-27T19:29:36.106Z,-0.2
2023-01-27T19:34:49.839Z,-0.2
2023-01-27T19:40:18.734Z,-0.2
2023-01-27T19:45:49.843Z,-0.2
2023-01-27T19:51:17.553Z,-0.3
2023-01-27T19:56:44.321Z,-0.3
2023-01-27T20:02:11.429Z,-0.3
2023-01-27T20:07:41.345Z,-0.3
2023-01-27T20:13:10.749Z,-0.3
2023-01-27T20:18:40.292Z,-0.3
2023-01-27T20:24:05.160Z,-0.3
2023-01-27T20:29:32.777Z,-0.3
2023-01-27T20:34:58.551Z,-0.4
2023-01-27T20:40:07.331Z,-0.4
2023-01-27T20:45:28.415Z,-0.4
2023-01-27T20:50:51.940Z,-0.4
2023-01-27T20:56:14.772Z,-0.4
2023-01-27T21:01:37.644Z,-0.4
2023-01-27T21:07:01.123Z,-0.4
2023-01-27T21:12:24.110Z,-0.4
2023-01-27T21:17:47.188Z,-0.4
2023-01-27T21:22:54.887Z,-0.4
2023-01-27T21:28:20.628Z,-0.4
2023-01-27T21:33:28.685Z,-0.4
2023-01-27T21:38:35.863Z,-0.4
2023-01-27T21:43:58.519Z,-0.4
2023-01-27T21:49:21.839Z,-0.4
2023-01-27T21:54:44.275Z,-0.4
2023-01-27T22:00:07.334Z,-0.4
2023-01-27T22:05:32.859Z,-0.4
2023-01-27T22:10:55.099Z,-0.4
2023-01-27T22:16:18.877Z,-0.4
2023-01-27T22:21:25.828Z,-0.4
2023-01-27T22:26:31.984Z,-0.4
2023-01-27T22:31:53.708Z,-0.4
2023-01-27T22:37:17.540Z,-0.4
2023-01-27T22:42:40.256Z,-0.4
2023-01-27T22:48:02.797Z,-0.4
2023-01-27T22:53:25.699Z,-0.4
2023-01-27T22:58:47.766Z,-0.4
2023-01-27T23:04:10.277Z,-0.4
2023-01-27T23:09:33.613Z,-0.4
2023-01-27T23:14:55.898Z,-0.5
2023-01-27T23:20:18.930Z,-0.5
2023-01-27T23:25:41.652Z,-0.5
2023-01-27T23:31:10.624Z,-0.5
2023-01-27T23:36:33.970Z,-0.5
2023-01-27T23:42:14.921Z,-0.6
2023-01-27T23:47:37.099Z,-0.6
2023-01-27T23:52:59.655Z,-0.6
2023-01-27T23:58:22.638Z,-0.6
